sensor_id;sensor_type;location;lat;lon;timestamp;pressure;altitude;pressure_sealevel;temperature;humidity
60918;BME280;46792;38.854;-9.384;2023-03-19T00:00:36;100046.34;;;11.80;100.00
60918;BME280;46792;38.854;-9.384;2023-03-19T00:02:36;100053.44;;;11.86;100.00
60918;BME280;46792;38.854;-9.384;2023-03-19T00:04:37;100046.91;;;11.82;100.00
60918;BME280;46792;38.854;-9.384;2023-03-19T00:06:37;100046.59;;;11.79;100.00
60918;BME280;46792;38.854;-9.384;2023-03-19T00:08:38;100035.97;;;11.67;100.00
60918;BME280;46792;38.854;-9.384;2023-03-19T00:15:17;100029.47;;;11.68;100.00
60918;BME280;46792;38.854;-9.384;2023-03-19T00:17:17;100038.72;;;11.72;100.00
60918;BME280;46792;38.854;-9.384;2023-03-19T00:19:18;100030.00;;;11.65;100.00
60918;BME280;46792;38.854;-9.384;2023-03-19T00:21:19;100032.75;;;11.70;100.00
60918;BME280;46792;38.854;-9.384;2023-03-19T00:23:20;100033.81;;;11.69;100.00
60918;BME280;46792;38.854;-9.384;2023-03-19T00:25:21;100028.97;;;11.71;100.00
60918;BME280;46792;38.854;-9.384;2023-03-19T00:27:22;100021.97;;;11.75;100.00
60918;BME280;46792;38.854;-9.384;2023-03-19T00:29:40;100038.72;;;11.72;100.00
60918;BME280;46792;38.854;-9.384;2023-03-19T00:31:42;100029.72;;;11.61;100.00
60918;BME280;46792;38.854;-9.384;2023-03-19T00:33:42;100026.75;;;11.63;100.00
60918;BME280;46792;38.854;-9.384;2023-03-19T00:35:44;100022.09;;;11.53;100.00
60918;BME280;46792;38.854;-9.384;2023-03-19T00:37:44;100018.56;;;11.52;100.00
60918;BME280;46792;38.854;-9.384;2023-03-19T00:39:45;100016.19;;;11.61;100.00
60918;BME280;46792;38.854;-9.384;2023-03-19T00:41:52;100020.25;;;11.64;100.00
60918;BME280;46792;38.854;-9.384;2023-03-19T00:43:54;100023.00;;;11.69;100.00
60918;BME280;46792;38.854;-9.384;2023-03-19T00:45:58;100030.78;;;11.60;100.00
60918;BME280;46792;38.854;-9.384;2023-03-19T00:47:59;100024.56;;;11.60;100.00
60918;BME280;46792;38.854;-9.384;2023-03-19T00:57:38;100032.69;;;11.60;100.00
60918;BME280;46792;38.854;-9.384;2023-03-19T00:59:39;100033.78;;;11.64;100.00
60918;BME280;46792;38.854;-9.384;2023-03-19T01:01:58;100027.53;;;11.58;100.00
60918;BME280;46792;38.854;-9.384;2023-03-19T01:03:59;100027.84;;;11.67;100.00
60918;BME280;46792;38.854;-9.384;2023-03-19T01:05:59;100024.06;;;11.63;100.00
60918;BME280;46792;38.854;-9.384;2023-03-19T01:08:00;100032.69;;;11.65;100.00
60918;BME280;46792;38.854;-9.384;2023-03-19T01:10:04;100030.56;;;11.67;100.00
60918;BME280;46792;38.854;-9.384;2023-03-19T01:12:06;100033.47;;;11.60;100.00
60918;BME280;46792;38.854;-9.384;2023-03-19T01:14:25;100031.28;;;11.52;100.00
60918;BME280;46792;38.854;-9.384;2023-03-19T01:16:26;100028.25;;;11.48;100.00
60918;BME280;46792;38.854;-9.384;2023-03-19T01:18:27;100026.66;;;11.52;100.00
60918;BME280;46792;38.854;-9.384;2023-03-19T01:20:28;100028.00;;;11.50;100.00
60918;BME280;46792;38.854;-9.384;2023-03-19T01:22:29;100029.06;;;11.49;100.00
60918;BME280;46792;38.854;-9.384;2023-03-19T01:24:48;100032.59;;;11.49;100.00
60918;BME280;46792;38.854;-9.384;2023-03-19T01:26:49;100038.00;;;11.49;100.00
60918;BME280;46792;38.854;-9.384;2023-03-19T01:28:59;100032.91;;;11.53;100.00
60918;BME280;46792;38.854;-9.384;2023-03-19T01:31:05;100035.00;;;11.46;100.00
60918;BME280;46792;38.854;-9.384;2023-03-19T01:33:30;100028.75;;;11.40;100.00
60918;BME280;46792;38.854;-9.384;2023-03-19T01:35:32;100023.03;;;11.36;100.00
60918;BME280;46792;38.854;-9.384;2023-03-19T01:37:33;100028.44;;;11.36;100.00
60918;BME280;46792;38.854;-9.384;2023-03-19T01:39:34;100022.25;;;11.41;100.00
60918;BME280;46792;38.854;-9.384;2023-03-19T01:41:53;100019.78;;;11.34;100.00
60918;BME280;46792;38.854;-9.384;2023-03-19T01:46:44;100013.03;;;11.37;100.00
60918;BME280;46792;38.854;-9.384;2023-03-19T01:49:12;100004.97;;;11.42;100.00
60918;BME280;46792;38.854;-9.384;2023-03-19T01:51:18;100006.81;;;11.36;100.00
60918;BME280;46792;38.854;-9.384;2023-03-19T01:53:31;100004.69;;;11.38;100.00
60918;BME280;46792;38.854;-9.384;2023-03-19T01:58:11;100000.03;;;11.34;100.00
60918;BME280;46792;38.854;-9.384;2023-03-19T02:00:34;100003.28;;;11.36;100.00
60918;BME280;46792;38.854;-9.384;2023-03-19T02:02:35;100001.63;;;11.30;100.00
60918;BME280;46792;38.854;-9.384;2023-03-19T02:05:08;99996.44;;;11.23;100.00
60918;BME280;46792;38.854;-9.384;2023-03-19T02:07:29;99994.28;;;11.25;100.00
60918;BME280;46792;38.854;-9.384;2023-03-19T02:09:32;99996.72;;;11.26;100.00
60918;BME280;46792;38.854;-9.384;2023-03-19T02:11:33;100008.84;;;11.24;100.00
60918;BME280;46792;38.854;-9.384;2023-03-19T02:13:35;99992.28;;;11.15;100.00
60918;BME280;46792;38.854;-9.384;2023-03-19T02:15:36;100000.09;;;11.11;100.00
60918;BME280;46792;38.854;-9.384;2023-03-19T02:17:37;99993.91;;;11.16;100.00
60918;BME280;46792;38.854;-9.384;2023-03-19T02:19:56;99992.84;;;11.17;100.00
60918;BME280;46792;38.854;-9.384;2023-03-19T02:22:04;99992.84;;;11.17;100.00
60918;BME280;46792;38.854;-9.384;2023-03-19T02:24:15;99985.53;;;11.13;100.00
60918;BME280;46792;38.854;-9.384;2023-03-19T02:26:46;99999.28;;;11.11;100.00
60918;BME280;46792;38.854;-9.384;2023-03-19T02:28:48;99990.13;;;11.12;100.00
60918;BME280;46792;38.854;-9.384;2023-03-19T02:30:58;99988.00;;;11.19;100.00
60918;BME280;46792;38.854;-9.384;2023-03-19T02:32:59;99991.03;;;11.23;100.00
60918;BME280;46792;38.854;-9.384;2023-03-19T02:35:00;99985.09;;;11.26;100.00
60918;BME280;46792;38.854;-9.384;2023-03-19T02:37:06;99980.81;;;11.30;100.00
60918;BME280;46792;38.854;-9.384;2023-03-19T02:39:27;99984.88;;;11.33;100.00
60918;BME280;46792;38.854;-9.384;2023-03-19T02:41:30;99981.44;;;11.43;100.00
60918;BME280;46792;38.854;-9.384;2023-03-19T02:43:33;99983.91;;;11.44;100.00
60918;BME280;46792;38.854;-9.384;2023-03-19T02:45:34;99977.44;;;11.50;100.00
60918;BME280;46792;38.854;-9.384;2023-03-19T02:47:34;99980.16;;;11.50;100.00
60918;BME280;46792;38.854;-9.384;2023-03-19T02:49:35;99976.38;;;11.51;100.00
60918;BME280;46792;38.854;-9.384;2023-03-19T02:51:36;99972.25;;;11.44;100.00
60918;BME280;46792;38.854;-9.384;2023-03-19T02:53:36;99971.75;;;11.47;100.00
60918;BME280;46792;38.854;-9.384;2023-03-19T02:55:37;99971.34;;;11.33;100.00
60918;BME280;46792;38.854;-9.384;2023-03-19T02:57:38;99965.16;;;11.32;100.00
60918;BME280;46792;38.854;-9.384;2023-03-19T02:59:38;99966.50;;;11.35;100.00
60918;BME280;46792;38.854;-9.384;2023-03-19T03:06:39;99954.50;;;11.20;100.00
60918;BME280;46792;38.854;-9.384;2023-03-19T03:08:40;99959.13;;;11.25;100.00
60918;BME280;46792;38.854;-9.384;2023-03-19T03:10:42;99959.41;;;11.23;100.00
60918;BME280;46792;38.854;-9.384;2023-03-19T03:12:42;99959.91;;;11.20;100.00
60918;BME280;46792;38.854;-9.384;2023-03-19T03:14:44;99942.91;;;11.20;100.00
60918;BME280;46792;38.854;-9.384;2023-03-19T03:17:03;99939.38;;;11.19;100.00
60918;BME280;46792;38.854;-9.384;2023-03-19T03:19:19;99938.81;;;11.17;100.00
60918;BME280;46792;38.854;-9.384;2023-03-19T03:21:20;99936.88;;;11.13;100.00
60918;BME280;46792;38.854;-9.384;2023-03-19T03:23:21;99924.16;;;11.08;100.00
60918;BME280;46792;38.854;-9.384;2023-03-19T03:25:22;99930.34;;;11.08;100.00
60918;BME280;46792;38.854;-9.384;2023-03-19T03:27:23;99932.78;;;11.05;100.00
60918;BME280;46792;38.854;-9.384;2023-03-19T03:29:23;99931.69;;;11.06;100.00
60918;BME280;46792;38.854;-9.384;2023-03-19T03:31:24;99930.00;;;11.00;100.00
60918;BME280;46792;38.854;-9.384;2023-03-19T03:33:26;99929.78;;;11.01;100.00
60918;BME280;46792;38.854;-9.384;2023-03-19T03:35:27;99927.88;;;11.02;100.00
60918;BME280;46792;38.854;-9.384;2023-03-19T03:37:28;99928.66;;;10.97;100.00
60918;BME280;46792;38.854;-9.384;2023-03-19T03:39:28;99928.91;;;10.95;100.00
60918;BME280;46792;38.854;-9.384;2023-03-19T03:41:29;99921.31;;;10.92;100.00
60918;BME280;46792;38.854;-9.384;2023-03-19T03:43:30;99933.84;;;11.04;100.00
60918;BME280;46792;38.854;-9.384;2023-03-19T03:45:31;99929.50;;;11.03;100.00
60918;BME280;46792;38.854;-9.384;2023-03-19T03:47:32;99924.38;;;11.01;100.00
60918;BME280;46792;38.854;-9.384;2023-03-19T03:49:33;99918.41;;;10.99;100.00
60918;BME280;46792;38.854;-9.384;2023-03-19T03:51:34;99925.22;;;11.07;100.00
60918;BME280;46792;38.854;-9.384;2023-03-19T03:53:35;99921.50;;;11.13;100.00
60918;BME280;46792;38.854;-9.384;2023-03-19T03:59:17;99918.75;;;11.08;100.00
60918;BME280;46792;38.854;-9.384;2023-03-19T04:01:36;99928.72;;;11.07;100.00
60918;BME280;46792;38.854;-9.384;2023-03-19T04:03:57;99931.13;;;11.04;100.00
60918;BME280;46792;38.854;-9.384;2023-03-19T04:05:59;99924.94;;;11.03;100.00
60918;BME280;46792;38.854;-9.384;2023-03-19T04:08:00;99933.91;;;11.09;100.00
60918;BME280;46792;38.854;-9.384;2023-03-19T04:10:00;99929.47;;;10.98;100.00
60918;BME280;46792;38.854;-9.384;2023-03-19T04:12:01;99922.91;;;10.88;100.00
60918;BME280;46792;38.854;-9.384;2023-03-19T04:14:02;99919.06;;;10.79;100.00
60918;BME280;46792;38.854;-9.384;2023-03-19T04:16:07;99921.63;;;10.69;100.00
60918;BME280;46792;38.854;-9.384;2023-03-19T04:18:09;99922.69;;;10.62;100.00
60918;BME280;46792;38.854;-9.384;2023-03-19T04:20:10;99923.25;;;10.70;100.00
60918;BME280;46792;38.854;-9.384;2023-03-19T04:22:11;99930.34;;;10.76;100.00
60918;BME280;46792;38.854;-9.384;2023-03-19T04:24:12;99926.09;;;10.80;100.00
60918;BME280;46792;38.854;-9.384;2023-03-19T04:26:14;99927.94;;;10.79;100.00
60918;BME280;46792;38.854;-9.384;2023-03-19T04:28:15;99939.88;;;10.84;100.00
60918;BME280;46792;38.854;-9.384;2023-03-19T04:30:15;99939.31;;;10.82;100.00
60918;BME280;46792;38.854;-9.384;2023-03-19T04:32:16;99937.97;;;10.84;100.00
60918;BME280;46792;38.854;-9.384;2023-03-19T04:34:17;99945.38;;;10.94;100.00
60918;BME280;46792;38.854;-9.384;2023-03-19T04:36:19;99952.91;;;10.92;100.00
60918;BME280;46792;38.854;-9.384;2023-03-19T04:38:21;99964.59;;;10.98;100.00
60918;BME280;46792;38.854;-9.384;2023-03-19T04:40:22;99958.66;;;11.01;100.00
60918;BME280;46792;38.854;-9.384;2023-03-19T04:42:23;99966.03;;;11.05;100.00
60918;BME280;46792;38.854;-9.384;2023-03-19T04:44:50;99960.91;;;11.09;100.00
60918;BME280;46792;38.854;-9.384;2023-03-19T04:46:51;99963.09;;;11.12;100.00
60918;BME280;46792;38.854;-9.384;2023-03-19T04:48:54;99956.91;;;11.17;100.00
60918;BME280;46792;38.854;-9.384;2023-03-19T04:50:55;99968.84;;;11.21;100.00
60918;BME280;46792;38.854;-9.384;2023-03-19T04:52:56;99961.81;;;11.20;100.00
60918;BME280;46792;38.854;-9.384;2023-03-19T04:54:58;99957.78;;;11.22;100.00
60918;BME280;46792;38.854;-9.384;2023-03-19T04:57:03;99957.47;;;11.19;100.00
60918;BME280;46792;38.854;-9.384;2023-03-19T04:59:09;99961.50;;;11.16;100.00
60918;BME280;46792;38.854;-9.384;2023-03-19T05:01:10;99965.81;;;11.12;100.00
60918;BME280;46792;38.854;-9.384;2023-03-19T05:03:31;99965.19;;;11.05;100.00
60918;BME280;46792;38.854;-9.384;2023-03-19T05:05:32;99971.44;;;11.05;100.00
60918;BME280;46792;38.854;-9.384;2023-03-19T05:07:34;99954.31;;;11.00;100.00
60918;BME280;46792;38.854;-9.384;2023-03-19T05:09:37;99957.09;;;11.05;100.00
60918;BME280;46792;38.854;-9.384;2023-03-19T05:11:37;99961.41;;;11.06;100.00
60918;BME280;46792;38.854;-9.384;2023-03-19T05:13:43;99958.72;;;11.06;100.00
60918;BME280;46792;38.854;-9.384;2023-03-19T05:15:44;99954.44;;;11.10;100.00
60918;BME280;46792;38.854;-9.384;2023-03-19T05:17:46;99959.00;;;11.09;100.00
60918;BME280;46792;38.854;-9.384;2023-03-19T05:19:55;99957.25;;;11.25;100.00
60918;BME280;46792;38.854;-9.384;2023-03-19T05:21:56;99955.84;;;11.18;100.00
60918;BME280;46792;38.854;-9.384;2023-03-19T05:23:58;99962.31;;;11.17;100.00
60918;BME280;46792;38.854;-9.384;2023-03-19T05:26:04;99954.38;;;11.05;100.00
60918;BME280;46792;38.854;-9.384;2023-03-19T05:28:24;99959.50;;;11.01;100.00
60918;BME280;46792;38.854;-9.384;2023-03-19T05:30:25;99959.28;;;11.08;100.00
60918;BME280;46792;38.854;-9.384;2023-03-19T05:32:32;99961.69;;;11.04;100.00
60918;BME280;46792;38.854;-9.384;2023-03-19T05:34:36;99962.13;;;10.96;100.00
60918;BME280;46792;38.854;-9.384;2023-03-19T05:36:37;99963.06;;;11.07;100.00
60918;BME280;46792;38.854;-9.384;2023-03-19T05:38:43;99959.00;;;11.04;100.00
60918;BME280;46792;38.854;-9.384;2023-03-19T05:40:50;99953.53;;;10.99;100.00
60918;BME280;46792;38.854;-9.384;2023-03-19T05:42:58;99956.72;;;10.91;100.00
60918;BME280;46792;38.854;-9.384;2023-03-19T05:45:01;99960.50;;;10.95;100.00
60918;BME280;46792;38.854;-9.384;2023-03-19T05:47:13;99968.41;;;11.02;100.00
60918;BME280;46792;38.854;-9.384;2023-03-19T05:49:18;99968.94;;;10.99;100.00
60918;BME280;46792;38.854;-9.384;2023-03-19T05:51:19;99975.34;;;10.92;100.00
60918;BME280;46792;38.854;-9.384;2023-03-19T05:53:21;99971.28;;;10.90;100.00
60918;BME280;46792;38.854;-9.384;2023-03-19T05:55:54;99971.28;;;10.90;100.00
60918;BME280;46792;38.854;-9.384;2023-03-19T05:57:55;99971.72;;;10.82;100.00
60918;BME280;46792;38.854;-9.384;2023-03-19T06:00:03;99971.47;;;10.83;100.00
60918;BME280;46792;38.854;-9.384;2023-03-19T06:02:05;99974.13;;;10.78;100.00
60918;BME280;46792;38.854;-9.384;2023-03-19T06:04:07;99972.22;;;10.78;100.00
60918;BME280;46792;38.854;-9.384;2023-03-19T06:06:08;99977.63;;;10.78;100.00
60918;BME280;46792;38.854;-9.384;2023-03-19T06:08:12;99981.97;;;10.79;100.00
60918;BME280;46792;38.854;-9.384;2023-03-19T06:10:27;99974.34;;;10.71;100.00
60918;BME280;46792;38.854;-9.384;2023-03-19T06:12:46;99967.75;;;10.62;100.00
60918;BME280;46792;38.854;-9.384;2023-03-19T06:17:39;99996.81;;;10.77;100.00
60918;BME280;46792;38.854;-9.384;2023-03-19T06:19:58;99979.75;;;10.76;100.00
60918;BME280;46792;38.854;-9.384;2023-03-19T06:22:01;99986.94;;;10.88;100.00
60918;BME280;46792;38.854;-9.384;2023-03-19T06:24:02;99985.31;;;10.92;100.00
60918;BME280;46792;38.854;-9.384;2023-03-19T06:26:07;99992.34;;;10.93;100.00
60918;BME280;46792;38.854;-9.384;2023-03-19T06:28:19;99989.22;;;11.01;100.00
60918;BME280;46792;38.854;-9.384;2023-03-19T06:30:20;99993.53;;;11.02;100.00
60918;BME280;46792;38.854;-9.384;2023-03-19T06:32:22;99998.69;;;11.04;100.00
60918;BME280;46792;38.854;-9.384;2023-03-19T06:37:02;99991.28;;;10.94;100.00
60918;BME280;46792;38.854;-9.384;2023-03-19T06:39:03;99990.72;;;10.92;100.00
60918;BME280;46792;38.854;-9.384;2023-03-19T06:41:03;99985.09;;;10.93;100.00
60918;BME280;46792;38.854;-9.384;2023-03-19T06:43:04;99989.97;;;10.97;100.00
60918;BME280;46792;38.854;-9.384;2023-03-19T06:45:05;99992.72;;;11.02;100.00
60918;BME280;46792;38.854;-9.384;2023-03-19T06:47:07;99994.09;;;11.04;100.00
60918;BME280;46792;38.854;-9.384;2023-03-19T06:49:09;99997.56;;;11.00;100.00
60918;BME280;46792;38.854;-9.384;2023-03-19T06:51:10;99996.19;;;10.97;100.00
60918;BME280;46792;38.854;-9.384;2023-03-19T06:53:11;99995.88;;;10.93;100.00
60918;BME280;46792;38.854;-9.384;2023-03-19T06:55:12;100001.28;;;10.93;100.00
60918;BME280;46792;38.854;-9.384;2023-03-19T06:57:13;99987.78;;;10.93;100.00
60918;BME280;46792;38.854;-9.384;2023-03-19T06:59:13;99995.94;;;10.99;100.00
60918;BME280;46792;38.854;-9.384;2023-03-19T07:01:14;100003.69;;;10.90;100.00
60918;BME280;46792;38.854;-9.384;2023-03-19T07:03:15;99995.75;;;10.83;100.00
60918;BME280;46792;38.854;-9.384;2023-03-19T07:05:35;100001.94;;;10.78;100.00
60918;BME280;46792;38.854;-9.384;2023-03-19T07:07:35;100003.84;;;10.78;100.00
60918;BME280;46792;38.854;-9.384;2023-03-19T07:09:36;100005.41;;;10.74;100.00
60918;BME280;46792;38.854;-9.384;2023-03-19T07:11:36;100015.13;;;10.75;100.00
60918;BME280;46792;38.854;-9.384;2023-03-19T07:13:37;100002.63;;;10.69;100.00
60918;BME280;46792;38.854;-9.384;2023-03-19T07:15:56;100013.44;;;10.69;100.00
60918;BME280;46792;38.854;-9.384;2023-03-19T07:17:57;100022.06;;;10.65;100.00
60918;BME280;46792;38.854;-9.384;2023-03-19T07:19:57;100017.72;;;10.64;100.00
60918;BME280;46792;38.854;-9.384;2023-03-19T07:22:17;100021.00;;;10.67;100.00
60918;BME280;46792;38.854;-9.384;2023-03-19T07:24:17;100030.97;;;10.66;100.00
60918;BME280;46792;38.854;-9.384;2023-03-19T07:26:18;100024.78;;;10.65;100.00
60918;BME280;46792;38.854;-9.384;2023-03-19T07:28:19;100022.88;;;10.66;100.00
60918;BME280;46792;38.854;-9.384;2023-03-19T07:30:20;100021.31;;;10.70;100.00
60918;BME280;46792;38.854;-9.384;2023-03-19T07:32:21;100025.94;;;10.75;100.00
60918;BME280;46792;38.854;-9.384;2023-03-19T07:34:22;100014.06;;;10.76;100.00
60918;BME280;46792;38.854;-9.384;2023-03-19T07:36:23;100019.47;;;10.76;100.00
60918;BME280;46792;38.854;-9.384;2023-03-19T07:38:24;100017.78;;;10.70;100.00
60918;BME280;46792;38.854;-9.384;2023-03-19T07:40:25;100021.00;;;10.67;100.00
60918;BME280;46792;38.854;-9.384;2023-03-19T07:42:25;100021.31;;;10.70;100.00
60918;BME280;46792;38.854;-9.384;2023-03-19T07:44:26;100025.13;;;10.74;100.00
60918;BME280;46792;38.854;-9.384;2023-03-19T07:46:27;100029.44;;;10.75;100.00
60918;BME280;46792;38.854;-9.384;2023-03-19T07:48:27;100025.66;;;10.76;100.00
60918;BME280;46792;38.854;-9.384;2023-03-19T07:50:30;100026.88;;;10.86;100.00
60918;BME280;46792;38.854;-9.384;2023-03-19T07:52:31;100020.75;;;10.95;100.00
60918;BME280;46792;38.854;-9.384;2023-03-19T07:54:31;100022.41;;;10.97;100.00
60918;BME280;46792;38.854;-9.384;2023-03-19T07:56:32;100012.16;;;10.99;100.00
60918;BME280;46792;38.854;-9.384;2023-03-19T07:58:32;100010.53;;;10.98;100.00
60918;BME280;46792;38.854;-9.384;2023-03-19T08:02:52;100003.06;;;11.10;100.00
60918;BME280;46792;38.854;-9.384;2023-03-19T08:04:52;100010.69;;;11.18;100.00
60918;BME280;46792;38.854;-9.384;2023-03-19T08:06:53;100017.28;;;11.28;100.00
60918;BME280;46792;38.854;-9.384;2023-03-19T08:08:54;100016.00;;;11.35;100.00
60918;BME280;46792;38.854;-9.384;2023-03-19T08:10:55;100016.28;;;11.39;100.00
60918;BME280;46792;38.854;-9.384;2023-03-19T08:12:56;100020.41;;;11.47;100.00
60918;BME280;46792;38.854;-9.384;2023-03-19T08:14:56;100025.88;;;11.52;100.00
60918;BME280;46792;38.854;-9.384;2023-03-19T08:16:57;100018.59;;;11.57;100.00
60918;BME280;46792;38.854;-9.384;2023-03-19T08:18:58;100015.41;;;11.66;100.00
60918;BME280;46792;38.854;-9.384;2023-03-19T08:21:01;100015.22;;;11.78;100.00
60918;BME280;46792;38.854;-9.384;2023-03-19T08:23:02;100016.06;;;11.83;100.00
60918;BME280;46792;38.854;-9.384;2023-03-19T08:27:41;100008.91;;;11.99;100.00
60918;BME280;46792;38.854;-9.384;2023-03-19T08:30:05;99998.41;;;12.08;100.00
60918;BME280;46792;38.854;-9.384;2023-03-19T08:32:06;100005.72;;;12.13;100.00
60918;BME280;46792;38.854;-9.384;2023-03-19T08:34:26;100013.56;;;12.09;100.00
60918;BME280;46792;38.854;-9.384;2023-03-19T08:36:45;100025.44;;;12.03;100.00
60918;BME280;46792;38.854;-9.384;2023-03-19T08:38:46;100016.03;;;12.21;100.00
60918;BME280;46792;38.854;-9.384;2023-03-19T08:40:46;100017.38;;;12.19;100.00
60918;BME280;46792;38.854;-9.384;2023-03-19T08:43:06;100016.59;;;12.18;100.00
60918;BME280;46792;38.854;-9.384;2023-03-19T08:45:09;100011.50;;;12.32;100.00
60918;BME280;46792;38.854;-9.384;2023-03-19T08:47:10;100029.91;;;12.35;100.00
60918;BME280;46792;38.854;-9.384;2023-03-19T08:49:11;100029.13;;;12.40;100.00
60918;BME280;46792;38.854;-9.384;2023-03-19T08:51:12;100026.41;;;12.35;100.00
60918;BME280;46792;38.854;-9.384;2023-03-19T08:53:12;100026.41;;;12.40;100.00
60918;BME280;46792;38.854;-9.384;2023-03-19T08:55:13;100023.78;;;12.50;100.00
60918;BME280;46792;38.854;-9.384;2023-03-19T08:57:13;100037.88;;;12.57;99.38
60918;BME280;46792;38.854;-9.384;2023-03-19T08:59:15;100038.69;;;12.63;99.26
60918;BME280;46792;38.854;-9.384;2023-03-19T09:01:16;100033.84;;;12.75;96.81
60918;BME280;46792;38.854;-9.384;2023-03-19T09:03:16;100031.41;;;12.69;95.89
60918;BME280;46792;38.854;-9.384;2023-03-19T09:05:17;100036.28;;;12.67;96.69
60918;BME280;46792;38.854;-9.384;2023-03-19T09:07:21;100040.84;;;12.61;94.73
60918;BME280;46792;38.854;-9.384;2023-03-19T09:09:23;100040.38;;;12.74;94.33
60918;BME280;46792;38.854;-9.384;2023-03-19T09:11:24;100041.16;;;12.70;95.54
60918;BME280;46792;38.854;-9.384;2023-03-19T09:13:25;100036.28;;;12.67;95.47
60918;BME280;46792;38.854;-9.384;2023-03-19T09:15:26;100037.09;;;12.67;94.17
60918;BME280;46792;38.854;-9.384;2023-03-19T09:17:27;100030.06;;;12.71;94.42
60918;BME280;46792;38.854;-9.384;2023-03-19T09:19:27;100034.38;;;12.67;95.18
60918;BME280;46792;38.854;-9.384;2023-03-19T09:21:46;100029.59;;;12.90;93.81
60918;BME280;46792;38.854;-9.384;2023-03-19T09:23:47;100027.94;;;12.94;93.23
60918;BME280;46792;38.854;-9.384;2023-03-19T09:25:48;100029.59;;;12.90;92.18
60918;BME280;46792;38.854;-9.384;2023-03-19T09:28:07;100029.31;;;12.97;91.48
60918;BME280;46792;38.854;-9.384;2023-03-19T09:30:09;100022.81;;;13.03;92.30
60918;BME280;46792;38.854;-9.384;2023-03-19T09:32:09;100016.34;;;13.19;91.67
60918;BME280;46792;38.854;-9.384;2023-03-19T09:34:10;100010.94;;;13.24;89.54
60918;BME280;46792;38.854;-9.384;2023-03-19T09:36:11;100016.34;;;13.35;89.81
60918;BME280;46792;38.854;-9.384;2023-03-19T09:38:11;100002.84;;;13.45;89.35
60918;BME280;46792;38.854;-9.384;2023-03-19T09:40:34;100003.63;;;13.66;88.08
60918;BME280;46792;38.854;-9.384;2023-03-19T09:42:52;100003.88;;;13.70;85.48
60918;BME280;46792;38.854;-9.384;2023-03-19T09:45:16;99999.84;;;13.67;85.15
60918;BME280;46792;38.854;-9.384;2023-03-19T09:47:30;100007.69;;;13.74;85.75
60918;BME280;46792;38.854;-9.384;2023-03-19T09:49:37;100012.28;;;13.79;84.18
60918;BME280;46792;38.854;-9.384;2023-03-19T09:51:51;100008.78;;;13.78;84.96
60918;BME280;46792;38.854;-9.384;2023-03-19T09:54:06;100015.81;;;13.84;83.38
60918;BME280;46792;38.854;-9.384;2023-03-19T09:56:13;100005.22;;;13.83;84.65
60918;BME280;46792;38.854;-9.384;2023-03-19T09:58:27;100013.06;;;14.05;83.37
60918;BME280;46792;38.854;-9.384;2023-03-19T10:00:34;100008.41;;;14.16;84.58
60918;BME280;46792;38.854;-9.384;2023-03-19T10:05:07;100017.00;;;14.39;82.96
60918;BME280;46792;38.854;-9.384;2023-03-19T10:13:01;100023.94;;;14.76;78.05
60918;BME280;46792;38.854;-9.384;2023-03-19T10:15:29;100014.91;;;14.86;78.34
60918;BME280;46792;38.854;-9.384;2023-03-19T10:17:40;100010.50;;;14.95;76.52
60918;BME280;46792;38.854;-9.384;2023-03-19T10:19:44;100012.34;;;15.05;75.89
60918;BME280;46792;38.854;-9.384;2023-03-19T10:21:49;100005.25;;;15.09;76.62
60918;BME280;46792;38.854;-9.384;2023-03-19T10:23:56;100009.38;;;15.01;76.33
60918;BME280;46792;38.854;-9.384;2023-03-19T10:26:04;100012.78;;;15.17;76.05
60918;BME280;46792;38.854;-9.384;2023-03-19T10:28:14;100018.97;;;15.28;76.04
60918;BME280;46792;38.854;-9.384;2023-03-19T10:30:16;100024.38;;;15.33;74.78
60918;BME280;46792;38.854;-9.384;2023-03-19T10:32:43;100023.56;;;15.33;75.34
60918;BME280;46792;38.854;-9.384;2023-03-19T10:35:23;100030.25;;;15.46;75.07
60918;BME280;46792;38.854;-9.384;2023-03-19T10:37:28;100031.66;;;15.43;74.14
60918;BME280;46792;38.854;-9.384;2023-03-19T10:39:33;100025.03;;;15.55;74.07
60918;BME280;46792;38.854;-9.384;2023-03-19T10:41:52;100041.84;;;15.62;73.61
60918;BME280;46792;38.854;-9.384;2023-03-19T10:44:05;100033.22;;;15.84;74.12
60918;BME280;46792;38.854;-9.384;2023-03-19T10:46:12;100038.31;;;15.96;72.38
60918;BME280;46792;38.854;-9.384;2023-03-19T10:48:17;100035.13;;;16.13;73.07
60918;BME280;46792;38.854;-9.384;2023-03-19T10:50:21;100028.69;;;16.28;71.98
60918;BME280;46792;38.854;-9.384;2023-03-19T10:57:45;100025.50;;;16.64;69.13
60918;BME280;46792;38.854;-9.384;2023-03-19T10:59:48;100032.16;;;16.77;68.62
60918;BME280;46792;38.854;-9.384;2023-03-19T11:01:49;100025.31;;;16.80;66.65
60918;BME280;46792;38.854;-9.384;2023-03-19T11:03:57;100025.09;;;16.76;67.48
60918;BME280;46792;38.854;-9.384;2023-03-19T11:08:20;100029.25;;;17.12;66.19
60918;BME280;46792;38.854;-9.384;2023-03-19T11:10:23;100019.28;;;17.21;66.57
60918;BME280;46792;38.854;-9.384;2023-03-19T11:12:32;100020.50;;;17.48;65.97
60918;BME280;46792;38.854;-9.384;2023-03-19T11:14:37;100012.50;;;17.52;66.81
60918;BME280;46792;38.854;-9.384;2023-03-19T11:19:23;100012.03;;;17.30;64.70
60918;BME280;46792;38.854;-9.384;2023-03-19T11:21:27;100019.97;;;17.46;67.01
60918;BME280;46792;38.854;-9.384;2023-03-19T11:23:29;100014.50;;;17.32;63.83
60918;BME280;46792;38.854;-9.384;2023-03-19T11:25:41;100018.78;;;17.52;62.81
60918;BME280;46792;38.854;-9.384;2023-03-19T11:28:10;100015.09;;;17.76;63.19
60918;BME280;46792;38.854;-9.384;2023-03-19T11:30:13;100013.19;;;17.90;63.57
60918;BME280;46792;38.854;-9.384;2023-03-19T11:34:55;100015.53;;;17.97;62.23
60918;BME280;46792;38.854;-9.384;2023-03-19T11:39:26;100007.78;;;18.04;61.87
60918;BME280;46792;38.854;-9.384;2023-03-19T11:41:48;100017.41;;;18.30;62.53